createdAt,value
2022-09-04T00:03:28.336Z,86.83
2022-09-04T00:08:28.812Z,86.08
2022-09-04T00:13:27.862Z,85.38
2022-09-04T00:18:30.227Z,85.28
2022-09-04T00:23:29.466Z,85.08
2022-09-04T00:28:30.601Z,84.91
2022-09-04T00:33:33.007Z,85.22
2022-09-04T00:38:32.096Z,85.42
2022-09-04T00:43:33.366Z,85.66
2022-09-04T00:48:36.466Z,86.07
2022-09-04T00:53:35.671Z,86.36
2022-09-04T00:58:36.918Z,86.27
2022-09-04T01:03:38.141Z,86.36
2022-09-04T01:08:39.393Z,86.71
2022-09-04T01:13:40.633Z,86.81
2022-09-04T01:18:41.767Z,86.51
2022-09-04T01:23:42.848Z,87.96
2022-09-04T01:28:43.965Z,88.51
2022-09-04T01:33:45.183Z,89.16
2022-09-04T01:38:46.261Z,90.41
2022-09-04T01:43:47.570Z,91.27
2022-09-04T01:48:48.688Z,92.52
2022-09-04T01:53:49.978Z,93.78
2022-09-04T01:58:51.087Z,93.23
2022-09-04T02:03:52.302Z,93.03
2022-09-04T02:08:54.419Z,93.08
2022-09-04T02:13:53.588Z,92.28
2022-09-04T02:18:54.781Z,93.79
2022-09-04T02:23:56.921Z,93.03
2022-09-04T02:28:56.072Z,94.00
2022-09-04T02:33:58.220Z,91.63
2022-09-04T02:38:57.459Z,90.47
2022-09-04T02:43:58.587Z,90.07
2022-09-04T02:49:00.696Z,89.97
2022-09-04T02:53:59.862Z,90.27
2022-09-04T02:58:59.937Z,88.92
2022-09-04T03:04:02.139Z,87.90
2022-09-04T03:09:01.346Z,87.90
2022-09-04T03:14:02.455Z,88.21
2022-09-04T03:19:03.641Z,88.85
2022-09-04T03:24:04.586Z,89.66
2022-09-04T03:29:03.693Z,90.07
2022-09-04T03:34:04.982Z,90.52
2022-09-04T03:39:06.086Z,90.82
2022-09-04T03:44:07.331Z,90.62
2022-09-04T03:49:08.576Z,89.70
2022-09-04T03:54:09.824Z,88.45
2022-09-04T03:59:11.952Z,88.04
2022-09-04T04:04:10.034Z,89.40
2022-09-04T04:09:11.285Z,90.86
2022-09-04T04:14:12.399Z,91.31
2022-09-04T04:19:13.541Z,93.62
2022-09-04T04:24:15.344Z,95.70
2022-09-04T04:29:14.566Z,96.96
2022-09-04T04:34:15.857Z,97.36
2022-09-04T04:39:16.940Z,97.77
2022-09-04T04:44:20.022Z,97.97
2022-09-04T04:49:19.107Z,97.72
2022-09-04T04:54:20.291Z,97.22
2022-09-04T04:59:22.688Z,97.02
2022-09-04T05:04:21.786Z,96.41
2022-09-04T05:09:24.004Z,95.90
2022-09-04T05:14:23.178Z,95.25
2022-09-04T05:19:24.259Z,96.15
2022-09-04T05:24:25.633Z,96.51
2022-09-04T05:29:30.544Z,96.20
2022-09-04T05:34:26.705Z,96.26
2022-09-04T05:39:27.830Z,96.01
2022-09-04T05:44:28.909Z,95.15
2022-09-04T05:49:31.000Z,93.95
2022-09-04T05:54:31.107Z,91.54
2022-09-04T05:59:30.198Z,91.38
2022-09-04T06:04:32.611Z,93.24
2022-09-04T06:09:31.671Z,92.19
2022-09-04T06:14:33.760Z,90.19
2022-09-04T06:19:32.981Z,87.52
2022-09-04T06:24:34.275Z,86.83
2022-09-04T06:29:35.569Z,85.98
2022-09-04T06:34:37.651Z,86.79
2022-09-04T06:39:37.084Z,86.49
2022-09-04T06:44:38.296Z,85.50
2022-09-04T06:49:40.400Z,82.26
2022-09-04T06:54:39.567Z,80.79
2022-09-04T06:59:40.836Z,81.93
2022-09-04T07:04:41.939Z,81.49
2022-09-04T07:09:43.022Z,80.11
2022-09-04T07:14:44.248Z,78.73
2022-09-04T07:19:44.505Z,77.29
2022-09-04T07:24:45.632Z,79.18
2022-09-04T07:29:46.734Z,77.70
2022-09-04T07:34:48.046Z,77.12
2022-09-04T07:39:50.208Z,77.99
2022-09-04T07:44:49.707Z,77.75
2022-09-04T07:49:50.958Z,76.04
2022-09-04T07:54:52.166Z,74.77
2022-09-04T07:59:53.521Z,75.74
2022-09-04T08:04:54.871Z,76.68
2022-09-04T08:09:56.999Z,76.21
2022-09-04T08:14:56.183Z,76.71
2022-09-04T08:19:57.341Z,74.13
2022-09-04T08:24:59.426Z,75.06
2022-09-04T08:29:58.653Z,72.92
2022-09-04T08:34:59.804Z,76.06
2022-09-04T08:40:01.045Z,72.39
2022-09-04T08:45:00.767Z,72.66
2022-09-04T08:50:03.027Z,73.43
2022-09-04T08:55:02.155Z,72.63
2022-09-04T09:00:03.397Z,70.89
2022-09-04T09:05:04.700Z,69.76
2022-09-04T09:10:05.971Z,68.99
2022-09-04T09:15:09.125Z,68.99
2022-09-04T09:20:08.211Z,66.67
2022-09-04T09:25:09.355Z,68.16
2022-09-04T09:30:11.437Z,69.43
2022-09-04T09:35:11.515Z,67.90
2022-09-04T09:40:10.593Z,66.24
2022-09-04T09:45:11.816Z,64.91
2022-09-04T09:50:13.118Z,62.49
2022-09-04T09:55:13.904Z,64.69
2022-09-04T10:00:15.068Z,62.99
2022-09-04T10:05:16.409Z,65.28
2022-09-04T10:10:18.492Z,67.76
2022-09-04T10:15:18.579Z,68.00
2022-09-04T10:20:18.824Z,67.70
2022-09-04T10:25:17.923Z,66.54
2022-09-04T10:30:20.105Z,66.01
2022-09-04T10:35:20.283Z,63.91
2022-09-04T10:40:20.603Z,64.81
2022-09-04T10:45:19.739Z,63.42
2022-09-04T10:50:21.146Z,63.68
2022-09-04T10:55:22.307Z,62.23
2022-09-04T11:00:23.493Z,64.54
2022-09-04T11:05:23.693Z,63.55
2022-09-04T11:10:24.840Z,64.51
2022-09-04T11:15:26.000Z,62.29
2022-09-04T11:20:28.102Z,61.79
2022-09-04T11:25:27.251Z,63.45
2022-09-04T11:30:28.584Z,64.72
2022-09-04T11:35:29.749Z,65.94
2022-09-04T11:40:30.974Z,63.89
2022-09-04T11:45:32.115Z,66.97
2022-09-04T11:50:33.232Z,67.47
2022-09-04T11:55:34.348Z,68.07
2022-09-04T12:00:35.448Z,69.13
2022-09-04T12:05:37.588Z,68.04
2022-09-04T12:10:36.867Z,69.43
2022-09-04T12:15:39.008Z,70.32
2022-09-04T12:20:38.101Z,67.83
2022-09-04T12:25:39.178Z,66.85
2022-09-04T12:30:40.287Z,65.69
2022-09-04T12:35:42.411Z,64.40
2022-09-04T12:40:41.592Z,64.86
2022-09-04T12:45:42.760Z,63.34
2022-09-04T12:50:43.901Z,64.00
2022-09-04T12:55:45.115Z,64.70
2022-09-04T13:00:49.690Z,63.73
2022-09-04T13:05:53.040Z,62.02
2022-09-04T13:10:46.980Z,62.78
2022-09-04T13:15:48.083Z,61.91
2022-09-04T13:20:51.416Z,59.31
2022-09-04T13:25:50.495Z,61.79
2022-09-04T13:30:51.585Z,62.35
2022-09-04T13:35:52.586Z,60.57
2022-09-04T13:40:51.704Z,61.59
2022-09-04T13:45:52.954Z,61.79
2022-09-04T13:50:54.986Z,60.37
2022-09-04T13:55:55.007Z,58.59
2022-09-04T14:00:54.360Z,57.40
2022-09-04T14:05:55.442Z,56.43
2022-09-04T14:10:57.496Z,58.59
2022-09-04T14:15:57.559Z,57.99
2022-09-04T14:20:56.673Z,58.88
2022-09-04T14:25:56.650Z,56.60
2022-09-04T14:30:58.873Z,57.32
2022-09-04T14:35:58.276Z,58.94
2022-09-04T14:40:59.599Z,57.53
2022-09-04T14:46:01.717Z,56.11
2022-09-04T14:51:01.857Z,55.21
2022-09-04T14:56:01.060Z,55.19
2022-09-04T15:01:03.154Z,54.30
2022-09-04T15:06:02.323Z,54.49
2022-09-04T15:11:03.447Z,54.72
2022-09-04T15:16:04.793Z,54.13
2022-09-04T15:21:06.899Z,54.00
2022-09-04T15:26:06.026Z,56.48
2022-09-04T15:31:12.061Z,54.96
2022-09-04T15:36:10.139Z,53.67
2022-09-04T15:41:17.425Z,53.13
2022-09-04T15:46:09.269Z,54.27
2022-09-04T15:51:11.539Z,54.62
2022-09-04T15:56:10.794Z,54.20
2022-09-04T16:01:12.020Z,54.05
2022-09-04T16:06:11.761Z,52.26
2022-09-04T16:11:14.035Z,53.20
2022-09-04T16:16:13.284Z,53.58
2022-09-04T16:21:15.766Z,52.29
2022-09-04T16:26:14.939Z,52.44
2022-09-04T16:31:17.424Z,53.18
2022-09-04T16:36:16.537Z,53.50
2022-09-04T16:41:17.637Z,52.78
2022-09-04T16:46:18.862Z,50.73
2022-09-04T16:51:39.703Z,54.19
2022-09-04T16:56:21.113Z,54.78
2022-09-04T17:01:22.393Z,55.96
2022-09-04T17:06:23.650Z,57.28
2022-09-04T17:11:24.774Z,57.40
2022-09-04T17:16:26.267Z,55.47
2022-09-04T17:25:19.613Z,58.28
2022-09-04T17:29:17.725Z,60.14
2022-09-04T17:31:25.617Z,63.73
2022-09-04T17:40:38.802Z,66.67
2022-09-04T17:41:39.444Z,67.14
2022-09-04T17:46:26.325Z,68.07
2022-09-04T17:51:28.523Z,70.12
2022-09-04T17:56:27.852Z,71.19
2022-09-04T18:01:29.306Z,72.19
2022-09-04T18:06:30.681Z,71.62
2022-09-04T18:11:31.980Z,73.09
2022-09-04T18:16:33.347Z,74.42
2022-09-04T18:21:34.657Z,74.96
2022-09-04T18:26:40.842Z,75.19
2022-09-04T18:37:06.780Z,76.39
2022-09-04T18:37:22.851Z,79.27
2022-09-04T18:45:38.987Z,77.47
2022-09-04T18:50:52.396Z,77.91
2022-09-04T18:51:38.023Z,79.00
2022-09-04T18:56:40.377Z,80.04
2022-09-04T19:01:39.740Z,81.48
2022-09-04T19:06:41.106Z,84.57
2022-09-04T19:11:43.453Z,85.61
2022-09-04T19:16:43.132Z,84.88
2022-09-04T19:21:43.486Z,85.31
2022-09-04T19:26:44.426Z,85.52
2022-09-04T19:31:43.928Z,86.76
2022-09-04T19:36:43.447Z,86.86
2022-09-04T19:46:07.453Z,87.71
2022-09-04T19:46:44.620Z,88.15
2022-09-04T19:53:36.279Z,87.79
2022-09-04T19:56:56.657Z,88.94
2022-09-04T20:01:44.182Z,88.49
2022-09-04T20:06:45.429Z,89.84
2022-09-04T20:11:47.641Z,92.25
2022-09-04T20:16:48.375Z,91.39
2022-09-04T20:21:48.812Z,92.75
2022-09-04T20:26:48.957Z,92.25
2022-09-04T20:31:48.122Z,93.30
2022-09-04T20:36:49.505Z,92.49
2022-09-04T20:41:51.668Z,92.29
2022-09-04T20:52:41.062Z,92.74
2022-09-04T20:52:49.129Z,91.73
2022-09-04T20:59:04.117Z,91.28
2022-09-04T21:03:14.705Z,90.92
2022-09-04T21:06:52.629Z,90.72
2022-09-04T21:11:52.715Z,90.72
2022-09-04T21:16:51.932Z,89.01
2022-09-04T21:21:53.017Z,86.61
2022-09-04T21:26:55.119Z,84.01
2022-09-04T21:31:54.371Z,81.32
2022-09-04T21:36:56.429Z,79.87
2022-09-04T21:41:55.518Z,78.42
2022-09-04T21:46:58.959Z,78.42
2022-09-04T21:51:58.044Z,77.22
2022-09-04T22:02:29.347Z,77.22
2022-09-04T22:02:48.702Z,78.46
2022-09-04T22:11:30.071Z,79.17
2022-09-04T22:13:41.993Z,79.17
2022-09-04T22:17:00.623Z,79.06
2022-09-04T22:22:03.514Z,77.96
2022-09-04T22:27:02.086Z,78.12
2022-09-04T22:32:03.161Z,76.48
2022-09-04T22:37:01.224Z,76.48
2022-09-04T22:42:02.323Z,76.48
2022-09-04T22:47:03.432Z,76.62
2022-09-04T22:52:09.872Z,76.65
2022-09-04T22:57:03.423Z,76.86
2022-09-04T23:02:09.926Z,77.20
2022-09-04T23:10:55.562Z,77.20
2022-09-04T23:13:47.527Z,77.70
2022-09-04T23:17:05.322Z,77.70
2022-09-04T23:26:36.198Z,78.20
2022-09-04T23:27:06.050Z,78.03
2022-09-04T23:32:09.907Z,78.94
2022-09-04T23:37:08.250Z,78.44
2022-09-04T23:42:07.371Z,78.94
2022-09-04T23:47:08.463Z,78.44
2022-09-04T23:52:11.585Z,79.44
2022-09-04T23:57:31.747Z,81.09
